sensor_id;sensor_type;location;lat;lon;timestamp;pressure;altitude;pressure_sealevel;temperature;humidity
4123;BME280;2075;51.062;6.920;2024-03-23T00:54:11;12107.00;;;-144.48;100.00
4123;BME280;2075;51.062;6.920;2024-03-23T00:56:56;21257.00;;;-144.48;100.00
4123;BME280;2075;51.062;6.920;2024-03-23T00:59:41;15154.19;;;-144.48;100.00
4123;BME280;2075;51.062;6.920;2024-03-23T01:02:26;9062.59;;;-144.48;100.00
4123;BME280;2075;51.062;6.920;2024-03-23T01:05:11;15662.31;;;-144.48;100.00
4123;BME280;2075;51.062;6.920;2024-03-23T01:07:55;16933.00;;;-144.48;100.00
4123;BME280;2075;51.062;6.920;2024-03-23T01:10:42;13884.19;;;-144.48;100.00
4123;BME280;2075;51.062;6.920;2024-03-23T01:13:27;11853.19;;;-144.48;100.00
4123;BME280;2075;51.062;6.920;2024-03-23T01:16:13;8809.03;;;-144.48;100.00
4123;BME280;2075;51.062;6.920;2024-03-23T01:18:57;5007.78;;;-144.48;100.00
4123;BME280;2075;51.062;6.920;2024-03-23T01:21:43;2476.06;;;-144.48;100.00
4123;BME280;2075;51.062;6.920;2024-03-23T01:24:27;1969.97;;;-144.48;100.00
4123;BME280;2075;51.062;6.920;2024-03-23T01:27:14;452.09;;;-144.48;100.00
4123;BME280;2075;51.062;6.920;2024-03-23T01:29:58;-1065.06;;;-144.48;100.00
4123;BME280;2075;51.062;6.920;2024-03-23T01:32:44;-3086.84;;;-144.48;100.00
4123;BME280;2075;51.062;6.920;2024-03-23T01:35:29;-2834.19;;;-144.48;100.00
4123;BME280;2075;51.062;6.920;2024-03-23T01:38:13;-812.25;;;-144.48;100.00
4123;BME280;2075;51.062;6.920;2024-03-23T01:40:59;-53.69;;;-144.48;100.00
4123;BME280;2075;51.062;6.920;2024-03-23T01:43:45;2729.16;;;-144.48;100.00
4123;BME280;2075;51.062;6.920;2024-03-23T01:46:30;5514.38;;;-144.48;100.00
4123;BME280;2075;51.062;6.920;2024-03-23T01:49:15;5007.78;;;-144.48;100.00
4123;BME280;2075;51.062;6.920;2024-03-23T01:52:01;7034.56;;;-144.48;100.00
4123;BME280;2075;51.062;6.920;2024-03-23T01:54:46;10077.09;;;-144.48;100.00
4123;BME280;2075;51.062;6.920;2024-03-23T01:57:32;14900.13;;;-144.48;100.00
4123;BME280;2075;51.062;6.920;2024-03-23T02:00:18;14646.13;;;-144.48;100.00
4123;BME280;2075;51.062;6.920;2024-03-23T02:03:21;22020.63;;;-144.48;100.00
4123;BME280;2075;51.062;6.920;2024-03-23T02:06:06;26351.25;;;-144.48;100.00
4123;BME280;2075;51.062;6.920;2024-03-23T02:08:53;26606.16;;;-144.48;100.00
4123;BME280;2075;51.062;6.920;2024-03-23T02:11:37;24057.88;;;-144.48;100.00
4123;BME280;2075;51.062;6.920;2024-03-23T02:14:22;28901.31;;;-144.48;100.00
4123;BME280;2075;51.062;6.920;2024-03-23T02:17:08;31963.94;;;-144.48;100.00
4123;BME280;2075;51.062;6.920;2024-03-23T02:19:54;54252.06;;;-144.48;100.00
4123;BME280;2075;51.062;6.920;2024-03-23T02:22:39;71061.00;;;-144.48;100.00
4123;BME280;2075;51.062;6.920;2024-03-23T02:25:25;87575.75;;;-144.48;100.00
4123;BME280;2075;51.062;6.920;2024-03-23T02:28:10;91722.94;;;-144.48;100.00
4123;BME280;2075;51.062;6.920;2024-03-23T02:30:56;91570.69;;;-144.48;100.00
4123;BME280;2075;51.062;6.920;2024-03-23T02:33:40;92786.91;;;-144.48;100.00
4123;BME280;2075;51.062;6.920;2024-03-23T02:36:25;94580.56;;;-144.48;100.00
4123;BME280;2075;51.062;6.920;2024-03-23T02:39:10;94745.13;;;-144.48;100.00
4123;BME280;2075;51.062;6.920;2024-03-23T02:41:57;94724.81;;;-144.48;100.00
4123;BME280;2075;51.062;6.920;2024-03-23T02:44:42;94722.78;;;-144.48;100.00
4123;BME280;2075;51.062;6.920;2024-03-23T02:47:27;94739.03;;;-144.48;100.00
4123;BME280;2075;51.062;6.920;2024-03-23T02:50:12;94781.72;;;-144.48;100.00
4123;BME280;2075;51.062;6.920;2024-03-23T02:52:59;94816.25;;;-144.48;100.00
4123;BME280;2075;51.062;6.920;2024-03-23T02:55:43;94863.00;;;-144.48;100.00
4123;BME280;2075;51.062;6.920;2024-03-23T02:58:30;94836.56;;;-144.48;100.00
4123;BME280;2075;51.062;6.920;2024-03-23T03:01:14;94830.47;;;-144.48;100.00
4123;BME280;2075;51.062;6.920;2024-03-23T03:04:00;94804.06;;;-144.48;100.00
4123;BME280;2075;51.062;6.920;2024-03-23T03:06:46;94771.56;;;-144.48;100.00
4123;BME280;2075;51.062;6.920;2024-03-23T03:09:32;94667.94;;;-144.48;100.00
4123;BME280;2075;51.062;6.920;2024-03-23T03:12:16;94574.47;;;-144.48;100.00
4123;BME280;2075;51.062;6.920;2024-03-23T03:15:04;94541.94;;;-144.48;100.00
4123;BME280;2075;51.062;6.920;2024-03-23T03:17:49;94383.47;;;-144.48;100.00
4123;BME280;2075;51.062;6.920;2024-03-23T03:20:37;94304.25;;;-144.48;100.00
4123;BME280;2075;51.062;6.920;2024-03-23T03:23:23;93916.22;;;-144.48;100.00
4123;BME280;2075;51.062;6.920;2024-03-23T03:26:07;94048.25;;;-144.48;100.00
4123;BME280;2075;51.062;6.920;2024-03-23T03:28:53;93564.78;;;-144.48;100.00
4123;BME280;2075;51.062;6.920;2024-03-23T03:31:39;93721.19;;;-144.48;100.00
4123;BME280;2075;51.062;6.920;2024-03-23T03:34:24;94275.78;;;-144.48;100.00
4123;BME280;2075;51.062;6.920;2024-03-23T03:37:09;93969.03;;;-144.48;100.00
4123;BME280;2075;51.062;6.920;2024-03-23T03:39:54;94476.94;;;-144.48;100.00
4123;BME280;2075;51.062;6.920;2024-03-23T03:42:39;94485.06;;;-144.48;100.00
4123;BME280;2075;51.062;6.920;2024-03-23T03:45:24;94588.69;;;-144.48;100.00
4123;BME280;2075;51.062;6.920;2024-03-23T03:48:10;94489.13;;;-144.48;100.00
4123;BME280;2075;51.062;6.920;2024-03-23T03:50:55;94611.03;;;-144.48;100.00
4123;BME280;2075;51.062;6.920;2024-03-23T03:53:40;94702.47;;;-144.48;100.00
4123;BME280;2075;51.062;6.920;2024-03-23T03:56:25;94777.66;;;-144.48;100.00
4123;BME280;2075;51.062;6.920;2024-03-23T03:59:10;94814.22;;;-144.48;100.00
4123;BME280;2075;51.062;6.920;2024-03-23T04:01:55;94800.00;;;-144.48;100.00
4123;BME280;2075;51.062;6.920;2024-03-23T04:04:41;94826.41;;;-144.48;100.00
4123;BME280;2075;51.062;6.920;2024-03-23T04:07:27;94795.94;;;-144.48;100.00
4123;BME280;2075;51.062;6.920;2024-03-23T04:10:11;94832.50;;;-144.48;100.00
4123;BME280;2075;51.062;6.920;2024-03-23T04:12:56;94812.19;;;-144.48;100.00
4123;BME280;2075;51.062;6.920;2024-03-23T04:15:41;94814.22;;;-144.48;100.00
4123;BME280;2075;51.062;6.920;2024-03-23T04:18:29;94793.91;;;-144.48;100.00
4123;BME280;2075;51.062;6.920;2024-03-23T04:21:15;94720.75;;;-144.48;100.00
4123;BME280;2075;51.062;6.920;2024-03-23T04:24:00;94800.00;;;-144.48;100.00
4123;BME280;2075;51.062;6.920;2024-03-23T04:26:45;94804.06;;;-144.48;100.00
4123;BME280;2075;51.062;6.920;2024-03-23T04:29:30;94824.38;;;-144.48;100.00
4123;BME280;2075;51.062;6.920;2024-03-23T04:32:15;94828.44;;;-144.48;100.00
4123;BME280;2075;51.062;6.920;2024-03-23T04:35:02;94753.28;;;-144.48;100.00
4123;BME280;2075;51.062;6.920;2024-03-23T04:37:48;94728.88;;;-144.48;100.00
4123;BME280;2075;51.062;6.920;2024-03-23T04:40:33;94688.25;;;-144.48;100.00
4123;BME280;2075;51.062;6.920;2024-03-23T04:43:19;94667.94;;;-144.48;100.00
4123;BME280;2075;51.062;6.920;2024-03-23T04:46:04;94582.59;;;-144.48;100.00
4123;BME280;2075;51.062;6.920;2024-03-23T04:48:50;94881.28;;;-144.48;100.00
4123;BME280;2075;51.062;6.920;2024-03-23T04:51:36;94558.22;;;-144.48;100.00
4123;BME280;2075;51.062;6.920;2024-03-23T04:54:23;94667.94;;;-144.48;100.00
4123;BME280;2075;51.062;6.920;2024-03-23T04:57:09;94692.31;;;-144.48;100.00
4123;BME280;2075;51.062;6.920;2024-03-23T04:59:55;94696.38;;;-144.48;100.00
4123;BME280;2075;51.062;6.920;2024-03-23T05:02:39;94684.19;;;-144.48;100.00
4123;BME280;2075;51.062;6.920;2024-03-23T05:05:25;95033.69;;;-144.48;100.00
4123;BME280;2075;51.062;6.920;2024-03-23T05:08:09;94629.31;;;-144.48;100.00
4123;BME280;2075;51.062;6.920;2024-03-23T05:10:56;94611.03;;;-144.48;100.00
4123;BME280;2075;51.062;6.920;2024-03-23T05:13:41;94428.16;;;-144.48;100.00
4123;BME280;2075;51.062;6.920;2024-03-23T05:16:26;94243.28;;;-144.48;100.00
4123;BME280;2075;51.062;6.920;2024-03-23T05:19:12;94247.34;;;-144.48;100.00
4123;BME280;2075;51.062;6.920;2024-03-23T05:21:56;94350.97;;;-144.48;100.00
4123;BME280;2075;51.062;6.920;2024-03-23T05:24:42;94401.75;;;-144.48;100.00
4123;BME280;2075;51.062;6.920;2024-03-23T05:27:28;94225.00;;;-144.48;100.00
4123;BME280;2075;51.062;6.920;2024-03-23T05:30:13;94229.06;;;-144.48;100.00
4123;BME280;2075;51.062;6.920;2024-03-23T05:32:58;94184.38;;;-144.48;100.00
4123;BME280;2075;51.062;6.920;2024-03-23T05:35:43;93928.41;;;-144.48;100.00
4123;BME280;2075;51.062;6.920;2024-03-23T05:38:28;93769.94;;;-144.48;100.00
4123;BME280;2075;51.062;6.920;2024-03-23T05:41:13;93404.31;;;-144.48;100.00
4123;BME280;2075;51.062;6.920;2024-03-23T05:43:59;93514.00;;;-144.48;100.00
4123;BME280;2075;51.062;6.920;2024-03-23T05:46:45;93839.00;;;-144.48;100.00
4123;BME280;2075;51.062;6.920;2024-03-23T05:49:32;93940.59;;;-144.48;100.00
4123;BME280;2075;51.062;6.920;2024-03-23T05:52:17;93333.22;;;-144.48;100.00
4123;BME280;2075;51.062;6.920;2024-03-23T05:55:02;93619.63;;;-144.48;100.00
4123;BME280;2075;51.062;6.920;2024-03-23T05:57:47;93432.75;;;-144.48;100.00
4123;BME280;2075;51.062;6.920;2024-03-23T06:00:33;93899.97;;;-144.48;100.00
4123;BME280;2075;51.062;6.920;2024-03-23T06:03:18;94269.69;;;-144.48;100.00
4123;BME280;2075;51.062;6.920;2024-03-23T06:06:05;94633.38;;;-144.48;100.00
4123;BME280;2075;51.062;6.920;2024-03-23T06:08:54;94403.78;;;-144.48;100.00
4123;BME280;2075;51.062;6.920;2024-03-23T06:11:40;94422.06;;;-144.48;100.00
4123;BME280;2075;51.062;6.920;2024-03-23T06:14:24;94342.84;;;-144.48;100.00
4123;BME280;2075;51.062;6.920;2024-03-23T06:17:11;94481.00;;;-144.48;100.00
4123;BME280;2075;51.062;6.920;2024-03-23T06:19:55;94509.44;;;-144.48;100.00
4123;BME280;2075;51.062;6.920;2024-03-23T06:22:41;94663.88;;;-144.48;100.00
4123;BME280;2075;51.062;6.920;2024-03-23T06:25:27;94676.06;;;-144.48;100.00
4123;BME280;2075;51.062;6.920;2024-03-23T06:28:12;94749.22;;;-144.48;100.00
4123;BME280;2075;51.062;6.920;2024-03-23T06:30:58;94877.22;;;-144.48;100.00
4123;BME280;2075;51.062;6.920;2024-03-23T06:33:43;94730.91;;;-144.48;100.00
4123;BME280;2075;51.062;6.920;2024-03-23T06:36:29;94730.91;;;-144.48;100.00
4123;BME280;2075;51.062;6.920;2024-03-23T06:39:15;94726.84;;;-144.48;100.00
4123;BME280;2075;51.062;6.920;2024-03-23T06:42:00;94645.56;;;-144.48;100.00
4123;BME280;2075;51.062;6.920;2024-03-23T06:44:44;94708.56;;;-144.48;100.00
4123;BME280;2075;51.062;6.920;2024-03-23T06:47:33;94676.06;;;-144.48;100.00
4123;BME280;2075;51.062;6.920;2024-03-23T06:50:19;94633.38;;;-144.48;100.00
4123;BME280;2075;51.062;6.920;2024-03-23T06:53:06;94127.50;;;-144.48;100.00
4123;BME280;2075;51.062;6.920;2024-03-23T06:55:52;93794.31;;;-144.48;62.32
4123;BME280;2075;51.062;6.920;2024-03-23T06:58:37;93511.97;;;-144.48;48.64
4123;BME280;2075;51.062;6.920;2024-03-23T07:01:23;93243.88;;;-144.48;42.68
4123;BME280;2075;51.062;6.920;2024-03-23T07:04:09;93254.03;;;-144.48;41.00
4123;BME280;2075;51.062;6.920;2024-03-23T07:06:56;93170.75;;;-144.48;39.37
4123;BME280;2075;51.062;6.920;2024-03-23T07:09:47;93059.03;;;-144.48;38.45
4123;BME280;2075;51.062;6.920;2024-03-23T07:12:31;93071.22;;;-144.48;37.74
4123;BME280;2075;51.062;6.920;2024-03-23T07:15:17;93270.25;;;-144.48;38.66
4123;BME280;2075;51.062;6.920;2024-03-23T07:18:02;93024.53;;;-144.48;38.03
4123;BME280;2075;51.062;6.920;2024-03-23T07:20:54;93219.50;;;-144.48;38.90
4123;BME280;2075;51.062;6.920;2024-03-23T07:23:43;93404.31;;;-144.48;40.74
4123;BME280;2075;51.062;6.920;2024-03-23T07:26:29;93176.84;;;-144.48;39.44
4123;BME280;2075;51.062;6.920;2024-03-23T07:29:14;93243.88;;;-144.48;38.64
4123;BME280;2075;51.062;6.920;2024-03-23T07:32:00;93071.22;;;-144.48;38.29
4123;BME280;2075;51.062;6.920;2024-03-23T07:34:44;92937.19;;;-144.48;36.76
4123;BME280;2075;51.062;6.920;2024-03-23T07:37:30;92843.78;;;-144.48;36.16
4123;BME280;2075;51.062;6.920;2024-03-23T07:40:16;93085.44;;;-144.48;37.44
4123;BME280;2075;51.062;6.920;2024-03-23T07:43:01;92900.63;;;-144.48;36.98
4123;BME280;2075;51.062;6.920;2024-03-23T07:45:51;92910.78;;;-144.48;36.08
4123;BME280;2075;51.062;6.920;2024-03-23T07:48:38;92254.88;;;-144.48;33.88
4123;BME280;2075;51.062;6.920;2024-03-23T07:51:24;92827.53;;;-144.48;34.37
4123;BME280;2075;51.062;6.920;2024-03-23T07:54:09;93300.72;;;-144.48;38.76
4123;BME280;2075;51.062;6.920;2024-03-23T07:56:58;93016.41;;;-144.48;36.71
4123;BME280;2075;51.062;6.920;2024-03-23T07:59:43;93223.56;;;-144.48;38.32
4123;BME280;2075;51.062;6.920;2024-03-23T08:02:28;92998.13;;;-144.48;36.48
4123;BME280;2075;51.062;6.920;2024-03-23T08:05:13;93052.94;;;-144.48;35.95
4123;BME280;2075;51.062;6.920;2024-03-23T08:07:59;92803.16;;;-144.48;34.71
4123;BME280;2075;51.062;6.920;2024-03-23T08:10:48;92675.22;;;-144.48;34.32
4123;BME280;2075;51.062;6.920;2024-03-23T08:13:35;92567.59;;;-144.48;33.09
4123;BME280;2075;51.062;6.920;2024-03-23T08:16:21;92713.78;;;-144.48;33.79
4123;BME280;2075;51.062;6.920;2024-03-23T08:19:07;92539.16;;;-144.48;32.51
4123;BME280;2075;51.062;6.920;2024-03-23T08:21:52;92750.34;;;-144.48;33.07
4123;BME280;2075;51.062;6.920;2024-03-23T08:24:38;93113.88;;;-144.48;34.75
4123;BME280;2075;51.062;6.920;2024-03-23T08:27:23;93203.25;;;-144.48;35.92
4123;BME280;2075;51.062;6.920;2024-03-23T08:30:11;93589.16;;;-144.48;38.74
4123;BME280;2075;51.062;6.920;2024-03-23T08:32:56;93700.88;;;-144.48;40.70
4123;BME280;2075;51.062;6.920;2024-03-23T08:35:42;93619.63;;;-144.48;41.19
4123;BME280;2075;51.062;6.920;2024-03-23T08:38:27;93745.56;;;-144.48;42.63
4123;BME280;2075;51.062;6.920;2024-03-23T08:41:13;94003.56;;;-144.48;46.89
4123;BME280;2075;51.062;6.920;2024-03-23T08:43:57;94294.09;;;-144.48;55.22
4123;BME280;2075;51.062;6.920;2024-03-23T08:46:45;94310.34;;;-144.48;60.91
4123;BME280;2075;51.062;6.920;2024-03-23T08:49:29;94373.31;;;-144.48;63.04
4123;BME280;2075;51.062;6.920;2024-03-23T08:52:16;94424.09;;;-144.48;66.30
4123;BME280;2075;51.062;6.920;2024-03-23T08:55:00;94391.59;;;-144.48;66.70
4123;BME280;2075;51.062;6.920;2024-03-23T08:57:46;94328.63;;;-144.48;64.98
4123;BME280;2075;51.062;6.920;2024-03-23T09:00:31;94338.78;;;-144.48;61.91
4123;BME280;2075;51.062;6.920;2024-03-23T09:03:18;94330.66;;;-144.48;63.38
4123;BME280;2075;51.062;6.920;2024-03-23T09:06:06;94430.22;;;-144.48;70.08
4123;BME280;2075;51.062;6.920;2024-03-23T09:08:52;94460.69;;;-144.48;70.88
4123;BME280;2075;51.062;6.920;2024-03-23T09:11:37;94501.31;;;-144.48;72.38
4123;BME280;2075;51.062;6.920;2024-03-23T09:14:24;94424.09;;;-144.48;71.26
4123;BME280;2075;51.062;6.920;2024-03-23T09:17:08;94422.06;;;-144.48;70.98
4123;BME280;2075;51.062;6.920;2024-03-23T09:19:56;94401.75;;;-144.48;70.48
4123;BME280;2075;51.062;6.920;2024-03-23T09:22:42;94456.63;;;-144.48;69.99
4123;BME280;2075;51.062;6.920;2024-03-23T09:25:26;94387.53;;;-144.48;69.17
4123;BME280;2075;51.062;6.920;2024-03-23T09:28:12;94403.78;;;-144.48;67.26
4123;BME280;2075;51.062;6.920;2024-03-23T09:31:03;94440.38;;;-144.48;66.36
4123;BME280;2075;51.062;6.920;2024-03-23T09:33:59;94397.69;;;-144.48;64.18
4123;BME280;2075;51.062;6.920;2024-03-23T09:36:46;94391.59;;;-144.48;66.38
4123;BME280;2075;51.062;6.920;2024-03-23T09:39:32;94444.44;;;-144.48;65.59
4123;BME280;2075;51.062;6.920;2024-03-23T09:42:17;94444.44;;;-144.48;66.15
4123;BME280;2075;51.062;6.920;2024-03-23T09:45:05;94409.88;;;-144.48;64.24
4123;BME280;2075;51.062;6.920;2024-03-23T09:47:51;94460.69;;;-144.48;63.62
4123;BME280;2075;51.062;6.920;2024-03-23T09:50:37;94444.44;;;-144.48;62.54
4123;BME280;2075;51.062;6.920;2024-03-23T09:53:23;94420.03;;;-144.48;61.38
4123;BME280;2075;51.062;6.920;2024-03-23T09:56:10;94468.81;;;-144.48;59.16
4123;BME280;2075;51.062;6.920;2024-03-23T09:59:05;94440.38;;;-144.48;57.99
4123;BME280;2075;51.062;6.920;2024-03-23T10:01:51;94399.72;;;-144.48;54.82
4123;BME280;2075;51.062;6.920;2024-03-23T10:04:36;94371.28;;;-144.48;52.88
4123;BME280;2075;51.062;6.920;2024-03-23T10:07:21;94359.09;;;-144.48;51.51
4123;BME280;2075;51.062;6.920;2024-03-23T10:10:12;94403.78;;;-144.48;51.23
4123;BME280;2075;51.062;6.920;2024-03-23T10:12:58;94391.59;;;-144.48;51.38
4123;BME280;2075;51.062;6.920;2024-03-23T10:15:43;94340.81;;;-144.48;50.76
4123;BME280;2075;51.062;6.920;2024-03-23T10:18:27;94302.22;;;-144.48;51.18
4123;BME280;2075;51.062;6.920;2024-03-23T10:21:15;94411.91;;;-144.48;52.35
4123;BME280;2075;51.062;6.920;2024-03-23T10:24:08;94371.28;;;-144.48;51.59
4123;BME280;2075;51.062;6.920;2024-03-23T10:26:57;94271.72;;;-144.48;51.58
4123;BME280;2075;51.062;6.920;2024-03-23T10:29:41;94340.81;;;-144.48;50.80
4123;BME280;2075;51.062;6.920;2024-03-23T10:32:27;94348.94;;;-144.48;52.67
4123;BME280;2075;51.062;6.920;2024-03-23T10:35:15;94418.00;;;-144.48;53.03
4123;BME280;2075;51.062;6.920;2024-03-23T10:38:04;94751.25;;;-144.48;52.72
4123;BME280;2075;51.062;6.920;2024-03-23T10:40:50;94448.50;;;-144.48;53.16
4123;BME280;2075;51.062;6.920;2024-03-23T10:43:38;94460.69;;;-144.48;56.43
4123;BME280;2075;51.062;6.920;2024-03-23T10:46:22;94665.91;;;-144.48;57.51
4123;BME280;2075;51.062;6.920;2024-03-23T10:49:08;94468.81;;;-144.48;57.75
4123;BME280;2075;51.062;6.920;2024-03-23T10:51:52;94448.50;;;-144.48;54.90
4123;BME280;2075;51.062;6.920;2024-03-23T10:54:40;94789.84;;;-144.48;52.06
4123;BME280;2075;51.062;6.920;2024-03-23T10:57:31;94468.81;;;-144.48;53.17
4123;BME280;2075;51.062;6.920;2024-03-23T11:00:22;94472.88;;;-144.48;53.64
4123;BME280;2075;51.062;6.920;2024-03-23T11:06:45;94854.88;;;-144.48;58.71
4123;BME280;2075;51.062;6.920;2024-03-23T11:09:39;94602.91;;;-144.48;62.35
4123;BME280;2075;51.062;6.920;2024-03-23T11:12:31;94665.91;;;-144.48;63.08
4123;BME280;2075;51.062;6.920;2024-03-23T11:15:17;94690.28;;;-144.48;72.16
4123;BME280;2075;51.062;6.920;2024-03-23T11:18:05;94672.00;;;-144.48;74.04
4123;BME280;2075;51.062;6.920;2024-03-23T11:20:52;94700.44;;;-144.48;77.20
4123;BME280;2075;51.062;6.920;2024-03-23T11:23:37;94676.06;;;-144.48;74.93
4123;BME280;2075;51.062;6.920;2024-03-23T11:26:23;94716.69;;;-144.48;68.98
4123;BME280;2075;51.062;6.920;2024-03-23T11:29:11;94694.34;;;-144.48;60.12
4123;BME280;2075;51.062;6.920;2024-03-23T11:31:57;94635.41;;;-144.48;60.21
4123;BME280;2075;51.062;6.920;2024-03-23T11:34:43;94505.38;;;-144.48;56.32
4123;BME280;2075;51.062;6.920;2024-03-23T11:37:29;94432.25;;;-144.48;53.90
4123;BME280;2075;51.062;6.920;2024-03-23T11:40:18;94379.41;;;-144.48;53.00
4123;BME280;2075;51.062;6.920;2024-03-23T11:43:05;94326.59;;;-144.48;53.70
4123;BME280;2075;51.062;6.920;2024-03-23T11:45:52;94409.88;;;-144.48;54.64
4123;BME280;2075;51.062;6.920;2024-03-23T11:48:39;94472.88;;;-144.48;55.79
4123;BME280;2075;51.062;6.920;2024-03-23T11:51:26;94489.13;;;-144.48;56.77
4123;BME280;2075;51.062;6.920;2024-03-23T11:54:11;94533.81;;;-144.48;59.18
4123;BME280;2075;51.062;6.920;2024-03-23T11:56:57;94493.19;;;-144.48;60.52
4123;BME280;2075;51.062;6.920;2024-03-23T11:59:43;94511.47;;;-144.48;60.77
4123;BME280;2075;51.062;6.920;2024-03-23T12:02:28;94452.56;;;-144.48;60.84
4123;BME280;2075;51.062;6.920;2024-03-23T12:05:14;94470.84;;;-144.48;61.70
4123;BME280;2075;51.062;6.920;2024-03-23T12:08:21;94436.31;;;-144.48;60.00
4123;BME280;2075;51.062;6.920;2024-03-23T12:11:10;94456.63;;;-144.48;58.98
4123;BME280;2075;51.062;6.920;2024-03-23T12:13:59;94460.69;;;-144.48;57.26
4123;BME280;2075;51.062;6.920;2024-03-23T12:16:45;94456.63;;;-144.48;57.30
4123;BME280;2075;51.062;6.920;2024-03-23T12:19:29;94434.28;;;-144.48;55.56
4123;BME280;2075;51.062;6.920;2024-03-23T12:22:15;94454.59;;;-144.48;57.72
4123;BME280;2075;51.062;6.920;2024-03-23T12:25:02;94485.06;;;-144.48;57.96
4123;BME280;2075;51.062;6.920;2024-03-23T12:27:47;94511.47;;;-144.48;58.35
4123;BME280;2075;51.062;6.920;2024-03-23T12:30:34;94576.50;;;-144.48;62.06
4123;BME280;2075;51.062;6.920;2024-03-23T12:33:18;94531.78;;;-144.48;65.56
4123;BME280;2075;51.062;6.920;2024-03-23T12:36:04;94574.47;;;-144.48;68.77
4123;BME280;2075;51.062;6.920;2024-03-23T12:38:48;94676.06;;;-144.48;77.62
4123;BME280;2075;51.062;6.920;2024-03-23T12:41:35;94783.75;;;-144.48;95.59
4123;BME280;2075;51.062;6.920;2024-03-23T12:44:22;94842.69;;;-144.48;100.00
4123;BME280;2075;51.062;6.920;2024-03-23T12:47:08;94854.88;;;-144.48;100.00
4123;BME280;2075;51.062;6.920;2024-03-23T12:49:53;94828.44;;;-144.48;100.00
4123;BME280;2075;51.062;6.920;2024-03-23T12:52:39;94787.81;;;-144.48;100.00
4123;BME280;2075;51.062;6.920;2024-03-23T12:55:24;94688.25;;;-144.48;100.00
4123;BME280;2075;51.062;6.920;2024-03-23T12:58:10;94588.69;;;-144.48;91.38
4123;BME280;2075;51.062;6.920;2024-03-23T13:00:58;94773.59;;;-144.48;79.70
4123;BME280;2075;51.062;6.920;2024-03-23T13:03:43;94407.84;;;-144.48;75.21
4123;BME280;2075;51.062;6.920;2024-03-23T13:06:30;94440.38;;;-144.48;73.52
4123;BME280;2075;51.062;6.920;2024-03-23T13:09:18;94460.69;;;-144.48;74.07
4123;BME280;2075;51.062;6.920;2024-03-23T13:12:02;94509.44;;;-144.48;77.52
4123;BME280;2075;51.062;6.920;2024-03-23T13:14:49;94513.50;;;-144.48;82.75
4123;BME280;2075;51.062;6.920;2024-03-23T13:17:35;94493.19;;;-144.48;77.61
4123;BME280;2075;51.062;6.920;2024-03-23T13:20:20;94523.66;;;-144.48;82.48
4123;BME280;2075;51.062;6.920;2024-03-23T13:23:05;94517.56;;;-144.48;81.50
4123;BME280;2075;51.062;6.920;2024-03-23T13:25:52;94535.84;;;-144.48;75.31
4123;BME280;2075;51.062;6.920;2024-03-23T13:28:37;94533.81;;;-144.48;73.02
4123;BME280;2075;51.062;6.920;2024-03-23T13:31:25;94503.34;;;-144.48;70.73
4123;BME280;2075;51.062;6.920;2024-03-23T13:34:09;94474.91;;;-144.48;70.30
4123;BME280;2075;51.062;6.920;2024-03-23T13:36:55;94332.69;;;-144.48;68.59
4123;BME280;2075;51.062;6.920;2024-03-23T13:39:42;94478.97;;;-144.48;69.66
4123;BME280;2075;51.062;6.920;2024-03-23T13:42:28;94481.00;;;-144.48;68.75
4123;BME280;2075;51.062;6.920;2024-03-23T13:45:13;94383.47;;;-144.48;66.46
4123;BME280;2075;51.062;6.920;2024-03-23T13:48:01;94420.03;;;-144.48;64.52
4123;BME280;2075;51.062;6.920;2024-03-23T13:50:46;94350.97;;;-144.48;62.19
4123;BME280;2075;51.062;6.920;2024-03-23T13:53:33;94381.44;;;-144.48;58.25
4123;BME280;2075;51.062;6.920;2024-03-23T13:56:18;94418.00;;;-144.48;60.48
4123;BME280;2075;51.062;6.920;2024-03-23T13:59:03;94716.69;;;-144.48;61.07
4123;BME280;2075;51.062;6.920;2024-03-23T14:01:48;94472.88;;;-144.48;61.35
4123;BME280;2075;51.062;6.920;2024-03-23T14:04:36;94436.31;;;-144.48;56.64
4123;BME280;2075;51.062;6.920;2024-03-23T14:07:22;94460.69;;;-144.48;56.51
4123;BME280;2075;51.062;6.920;2024-03-23T14:10:09;94346.91;;;-144.48;57.38
4123;BME280;2075;51.062;6.920;2024-03-23T14:12:55;94397.69;;;-144.48;56.25
4123;BME280;2075;51.062;6.920;2024-03-23T14:15:40;94359.09;;;-144.48;57.74
4123;BME280;2075;51.062;6.920;2024-03-23T14:18:26;94598.84;;;-144.48;59.75
4123;BME280;2075;51.062;6.920;2024-03-23T14:21:13;94334.72;;;-144.48;57.59
4123;BME280;2075;51.062;6.920;2024-03-23T14:24:00;94397.69;;;-144.48;58.04
4123;BME280;2075;51.062;6.920;2024-03-23T14:26:44;94383.47;;;-144.48;60.67
4123;BME280;2075;51.062;6.920;2024-03-23T14:29:30;94456.63;;;-144.48;58.38
4123;BME280;2075;51.062;6.920;2024-03-23T14:32:15;94379.41;;;-144.48;61.52
4123;BME280;2075;51.062;6.920;2024-03-23T14:35:01;94415.97;;;-144.48;53.17
4123;BME280;2075;51.062;6.920;2024-03-23T14:37:48;94515.53;;;-144.48;53.48
4123;BME280;2075;51.062;6.920;2024-03-23T14:40:33;94458.66;;;-144.48;54.42
4123;BME280;2075;51.062;6.920;2024-03-23T14:43:18;94474.91;;;-144.48;60.67
4123;BME280;2075;51.062;6.920;2024-03-23T14:46:07;94529.75;;;-144.48;62.50
4123;BME280;2075;51.062;6.920;2024-03-23T14:48:52;94533.81;;;-144.48;65.87
4123;BME280;2075;51.062;6.920;2024-03-23T14:51:38;94584.63;;;-144.48;69.65
4123;BME280;2075;51.062;6.920;2024-03-23T14:54:25;94570.41;;;-144.48;68.24
4123;BME280;2075;51.062;6.920;2024-03-23T14:57:10;94558.22;;;-144.48;69.51
4123;BME280;2075;51.062;6.920;2024-03-23T14:59:55;94600.88;;;-144.48;63.42
4123;BME280;2075;51.062;6.920;2024-03-23T15:02:41;94635.41;;;-144.48;64.99
4123;BME280;2075;51.062;6.920;2024-03-23T15:05:26;94596.81;;;-144.48;67.41
4123;BME280;2075;51.062;6.920;2024-03-23T15:08:12;94596.81;;;-144.48;69.70
4123;BME280;2075;51.062;6.920;2024-03-23T15:11:00;94665.91;;;-144.48;72.09
4123;BME280;2075;51.062;6.920;2024-03-23T15:13:50;94606.97;;;-144.48;75.81
4123;BME280;2075;51.062;6.920;2024-03-23T15:16:34;94633.38;;;-144.48;77.12
4123;BME280;2075;51.062;6.920;2024-03-23T15:19:20;94576.50;;;-144.48;76.51
4123;BME280;2075;51.062;6.920;2024-03-23T15:22:06;94466.78;;;-144.48;69.80
4123;BME280;2075;51.062;6.920;2024-03-23T15:24:53;94346.91;;;-144.48;64.05
4123;BME280;2075;51.062;6.920;2024-03-23T15:27:39;94355.03;;;-144.48;59.58
4123;BME280;2075;51.062;6.920;2024-03-23T15:30:25;94405.81;;;-144.48;56.77